createdAt,value
2018-09-13T00:00:11.127Z,61.79
2018-09-13T00:02:40.520Z,61.88
2018-09-13T00:05:09.097Z,61.60
2018-09-13T00:07:37.626Z,60.99
2018-09-13T00:10:06.271Z,60.82
2018-09-13T00:12:34.943Z,60.37
2018-09-13T00:15:03.597Z,60.52
2018-09-13T00:17:32.199Z,60.88
2018-09-13T00:20:00.775Z,60.35
2018-09-13T00:22:29.299Z,60.68
2018-09-13T00:24:58.027Z,60.12
2018-09-13T00:27:26.616Z,60.29
2018-09-13T00:29:55.226Z,60.72
2018-09-13T00:32:23.772Z,60.19
2018-09-13T00:34:52.344Z,60.45
2018-09-13T00:37:20.914Z,60.27
2018-09-13T00:39:49.439Z,60.64
2018-09-13T00:42:18.009Z,60.97
2018-09-13T00:44:46.563Z,60.69
2018-09-13T00:47:15.132Z,60.75
2018-09-13T00:49:44.113Z,61.47
2018-09-13T00:52:12.663Z,61.61
2018-09-13T00:54:41.187Z,61.74
2018-09-13T00:57:09.996Z,61.50
2018-09-13T00:59:38.517Z,61.65
2018-09-13T01:02:07.198Z,61.23
2018-09-13T01:04:35.735Z,61.49
2018-09-13T01:07:04.393Z,61.81
2018-09-13T01:09:33.015Z,62.63
2018-09-13T01:12:01.539Z,62.48
2018-09-13T01:14:30.236Z,62.22
2018-09-13T01:16:58.780Z,61.48
2018-09-13T01:19:27.390Z,61.40
2018-09-13T01:21:55.956Z,60.94
2018-09-13T01:24:24.600Z,61.29
2018-09-13T01:26:53.139Z,62.01
2018-09-13T01:29:21.682Z,62.26
2018-09-13T01:31:50.227Z,62.02
2018-09-13T01:34:19.549Z,62.13
2018-09-13T01:36:48.944Z,62.29
2018-09-13T01:39:17.500Z,62.12
2018-09-13T01:41:46.057Z,62.69
2018-09-13T01:44:14.640Z,62.48
2018-09-13T01:46:43.211Z,62.17
2018-09-13T01:49:11.998Z,62.05
2018-09-13T01:51:40.558Z,62.75
2018-09-13T01:54:09.168Z,62.47
2018-09-13T01:56:37.692Z,62.84
2018-09-13T01:59:06.256Z,62.62
2018-09-13T02:01:34.809Z,62.76
2018-09-13T02:04:03.912Z,62.74
2018-09-13T02:06:32.453Z,62.58
2018-09-13T02:09:00.992Z,62.60
2018-09-13T02:11:29.550Z,62.67
2018-09-13T02:13:58.172Z,62.69
2018-09-13T02:16:27.000Z,62.63
2018-09-13T02:18:55.512Z,62.54
2018-09-13T02:21:24.047Z,62.84
2018-09-13T02:23:52.643Z,62.15
2018-09-13T02:26:21.159Z,62.23
2018-09-13T02:28:49.707Z,62.09
2018-09-13T02:31:18.448Z,61.94
2018-09-13T02:33:47.107Z,61.94
2018-09-13T02:36:15.656Z,62.51
2018-09-13T02:38:44.527Z,62.61
2018-09-13T02:41:13.400Z,63.61
2018-09-13T02:43:42.013Z,63.53
2018-09-13T02:46:10.592Z,63.76
2018-09-13T02:48:39.208Z,63.65
2018-09-13T02:51:07.786Z,63.22
2018-09-13T02:53:36.461Z,63.75
2018-09-13T02:56:04.987Z,64.14
2018-09-13T02:58:33.528Z,63.99
2018-09-13T03:01:02.203Z,63.96
2018-09-13T03:03:30.749Z,64.29
2018-09-13T03:05:59.276Z,63.84
2018-09-13T03:08:27.911Z,63.15
2018-09-13T03:10:56.409Z,62.84
2018-09-13T03:13:25.000Z,63.00
2018-09-13T03:15:53.720Z,62.61
2018-09-13T03:18:22.316Z,63.20
2018-09-13T03:20:51.175Z,62.66
2018-09-13T03:23:19.814Z,63.63
2018-09-13T03:25:48.349Z,63.49
2018-09-13T03:28:16.998Z,63.24
2018-09-13T03:30:45.601Z,64.06
2018-09-13T03:33:14.216Z,64.14
2018-09-13T03:35:42.748Z,63.44
2018-09-13T03:38:11.314Z,63.90
2018-09-13T03:40:40.965Z,63.39
2018-09-13T03:43:09.681Z,63.99
2018-09-13T03:45:38.249Z,64.16
2018-09-13T03:48:06.773Z,64.37
2018-09-13T03:50:35.471Z,64.77
2018-09-13T03:53:04.704Z,64.74
2018-09-13T03:55:33.276Z,64.27
2018-09-13T03:58:02.645Z,63.61
2018-09-13T04:00:31.175Z,64.21
2018-09-13T04:03:00.537Z,63.94
2018-09-13T04:05:29.072Z,63.40
2018-09-13T04:07:57.609Z,63.56
2018-09-13T04:10:26.216Z,63.91
2018-09-13T04:12:54.915Z,64.35
2018-09-13T04:15:23.492Z,63.61
2018-09-13T04:17:54.012Z,63.80
2018-09-13T04:20:22.572Z,64.29
2018-09-13T04:22:51.124Z,63.94
2018-09-13T04:25:19.696Z,63.95
2018-09-13T04:27:48.239Z,63.45
2018-09-13T04:30:16.773Z,63.59
2018-09-13T04:32:45.319Z,63.90
2018-09-13T04:35:14.204Z,64.08
2018-09-13T04:37:42.744Z,64.56
2018-09-13T04:40:11.409Z,64.29
2018-09-13T04:42:40.127Z,64.41
2018-09-13T04:45:08.708Z,64.93
2018-09-13T04:47:37.271Z,64.92
2018-09-13T04:50:06.808Z,64.85
2018-09-13T04:52:35.603Z,65.14
2018-09-13T04:55:05.010Z,65.09
2018-09-13T04:57:33.559Z,65.14
2018-09-13T05:00:02.103Z,64.81
2018-09-13T05:02:30.657Z,64.94
2018-09-13T05:04:59.262Z,64.96
2018-09-13T05:10:17.781Z,65.03
2018-09-13T05:12:46.353Z,65.32
2018-09-13T05:15:15.020Z,64.94
2018-09-13T05:17:43.590Z,65.01
2018-09-13T05:20:12.250Z,64.05
2018-09-13T05:22:40.852Z,64.13
2018-09-13T05:25:09.487Z,64.25
2018-09-13T05:27:38.073Z,64.39
2018-09-13T05:30:07.248Z,64.08
2018-09-13T05:32:36.541Z,64.18
2018-09-13T05:35:05.828Z,64.35
2018-09-13T05:37:34.411Z,63.99
2018-09-13T05:40:02.988Z,64.00
2018-09-13T05:42:31.575Z,64.11
2018-09-13T05:45:00.363Z,63.05
2018-09-13T05:47:28.907Z,62.84
2018-09-13T05:49:57.459Z,62.59
2018-09-13T05:52:26.017Z,62.48
2018-09-13T05:54:54.785Z,62.48
2018-09-13T05:57:23.368Z,62.18
2018-09-13T05:59:52.029Z,61.98
2018-09-13T06:02:20.592Z,62.05
2018-09-13T06:04:49.465Z,62.56
2018-09-13T06:07:18.020Z,62.98
2018-09-13T06:09:46.553Z,62.37
2018-09-13T06:12:15.191Z,62.48
2018-09-13T06:14:43.745Z,61.99
2018-09-13T06:17:12.635Z,61.87
2018-09-13T06:19:41.253Z,61.25
2018-09-13T06:22:09.863Z,61.65
2018-09-13T06:24:38.420Z,61.22
2018-09-13T06:27:07.316Z,61.26
2018-09-13T06:29:36.264Z,62.32
2018-09-13T06:32:04.803Z,61.73
2018-09-13T06:34:33.337Z,62.06
2018-09-13T06:37:02.123Z,61.03
2018-09-13T06:39:30.668Z,61.59
2018-09-13T06:41:59.453Z,61.01
2018-09-13T06:44:27.998Z,60.83
2018-09-13T06:46:56.601Z,59.65
2018-09-13T06:49:25.160Z,59.98
2018-09-13T06:51:53.770Z,59.34
2018-09-13T06:54:22.330Z,58.25
2018-09-13T06:56:50.973Z,57.95
2018-09-13T06:59:19.533Z,57.64
2018-09-13T07:01:48.722Z,57.77
2018-09-13T07:04:17.303Z,58.54
2018-09-13T07:06:45.880Z,57.92
2018-09-13T07:09:15.502Z,56.74
2018-09-13T07:11:44.859Z,56.48
2018-09-13T07:14:13.514Z,55.87
2018-09-13T07:16:42.083Z,56.97
2018-09-13T07:22:03.047Z,57.85
2018-09-13T07:24:31.788Z,58.12
2018-09-13T07:27:00.538Z,57.30
2018-09-13T07:29:29.096Z,58.10
2018-09-13T07:31:57.928Z,57.67
2018-09-13T07:34:26.575Z,56.85
2018-09-13T07:36:55.161Z,56.32
2018-09-13T07:39:23.775Z,55.50
2018-09-13T07:41:52.336Z,55.01
2018-09-13T07:44:21.131Z,54.11
2018-09-13T07:46:49.689Z,54.00
2018-09-13T07:49:18.257Z,52.86
2018-09-13T07:51:46.868Z,52.97
2018-09-13T07:54:15.405Z,50.92
2018-09-13T07:56:43.995Z,48.61
2018-09-13T07:59:12.609Z,48.69
2018-09-13T08:01:41.176Z,49.41
2018-09-13T08:04:09.753Z,49.84
2018-09-13T08:06:38.287Z,49.54
2018-09-13T08:09:09.879Z,50.42
2018-09-13T08:11:38.564Z,51.22
2018-09-13T08:14:07.100Z,49.84
2018-09-13T08:16:35.656Z,49.86
2018-09-13T08:19:04.310Z,50.41
2018-09-13T08:27:13.578Z,47.07
2018-09-13T08:29:42.168Z,46.91
2018-09-13T08:32:10.752Z,45.82
2018-09-13T08:34:39.387Z,45.49
2018-09-13T08:37:08.025Z,44.39
2018-09-13T08:39:36.544Z,42.99
2018-09-13T08:44:55.276Z,41.84
2018-09-13T08:47:23.870Z,39.56
2018-09-13T08:49:52.485Z,40.22
2018-09-13T08:52:21.089Z,39.41
2018-09-13T08:54:49.623Z,40.29
2018-09-13T08:57:18.187Z,40.37
2018-09-13T08:59:46.739Z,40.02
2018-09-13T09:02:15.316Z,39.09
2018-09-13T09:04:43.868Z,39.53
2018-09-13T09:07:12.503Z,39.35
2018-09-13T09:09:41.132Z,39.07
2018-09-13T09:12:09.960Z,39.42
2018-09-13T09:14:38.812Z,39.34
2018-09-13T09:17:07.624Z,38.87
2018-09-13T09:19:36.233Z,38.09
2018-09-13T09:22:04.883Z,38.10
2018-09-13T09:24:33.420Z,37.69
2018-09-13T09:27:02.005Z,37.87
2018-09-13T09:29:30.665Z,38.17
2018-09-13T09:31:59.256Z,37.04
2018-09-13T09:34:27.828Z,37.29
2018-09-13T09:36:56.376Z,37.39
2018-09-13T09:39:24.948Z,36.37
2018-09-13T09:41:53.642Z,36.00
2018-09-13T09:44:22.249Z,35.54
2018-09-13T09:46:50.771Z,35.40
2018-09-13T09:49:19.348Z,34.73
2018-09-13T09:51:47.948Z,35.09
2018-09-13T09:54:16.509Z,33.48
2018-09-13T09:56:45.105Z,31.71
2018-09-13T09:59:13.689Z,33.17
2018-09-13T10:01:47.792Z,32.85
2018-09-13T10:04:16.629Z,31.37
2018-09-13T10:06:45.171Z,31.71
2018-09-13T10:09:13.866Z,32.09
2018-09-13T10:11:42.480Z,32.18
2018-09-13T10:14:11.077Z,31.88
2018-09-13T10:16:44.888Z,30.93
2018-09-13T10:19:18.771Z,30.64
2018-09-13T10:21:52.470Z,29.70
2018-09-13T10:24:26.872Z,29.01
2018-09-13T10:27:00.634Z,29.00
2018-09-13T10:29:34.746Z,29.09
2018-09-13T10:32:08.633Z,29.49
2018-09-13T10:34:42.425Z,29.21
2018-09-13T10:37:16.104Z,28.72
2018-09-13T10:39:49.868Z,29.19
2018-09-13T10:42:23.509Z,28.24
2018-09-13T10:44:57.117Z,28.53
2018-09-13T10:47:30.929Z,27.61
2018-09-13T10:50:10.600Z,29.63
2018-09-13T10:52:41.542Z,29.59
2018-09-13T10:55:10.078Z,30.47
2018-09-13T10:57:42.548Z,29.84
2018-09-13T11:00:12.053Z,30.36
2018-09-13T11:02:40.675Z,29.21
2018-09-13T11:05:09.341Z,29.37
2018-09-13T11:07:37.927Z,29.71
2018-09-13T11:10:06.536Z,30.62
2018-09-13T11:12:44.282Z,30.57
2018-09-13T11:15:21.252Z,31.51
2018-09-13T11:17:49.829Z,31.96
2018-09-13T11:20:18.355Z,31.46
2018-09-13T11:22:51.020Z,31.96
2018-09-13T11:25:19.564Z,30.47
2018-09-13T11:31:10.440Z,31.87
2018-09-13T11:33:39.408Z,32.15
2018-09-13T11:36:08.080Z,31.73
2018-09-13T11:38:36.648Z,32.99
2018-09-13T11:41:05.584Z,33.08
2018-09-13T11:43:34.225Z,33.51
2018-09-13T11:46:02.864Z,33.52
2018-09-13T11:48:31.703Z,33.02
2018-09-13T11:51:00.489Z,33.28
2018-09-13T11:53:29.233Z,32.76
2018-09-13T11:55:57.807Z,32.72
2018-09-13T11:58:26.388Z,32.40
2018-09-13T12:00:54.925Z,32.29
2018-09-13T12:03:23.482Z,31.99
2018-09-13T12:05:52.023Z,32.04
2018-09-13T12:08:20.723Z,31.43
2018-09-13T12:10:49.319Z,31.94
2018-09-13T12:13:17.916Z,32.04
2018-09-13T12:15:46.516Z,31.21
2018-09-13T12:18:15.122Z,31.16
2018-09-13T12:20:43.912Z,31.19
2018-09-13T12:23:12.597Z,31.38
2018-09-13T12:25:41.205Z,30.86
2018-09-13T12:28:09.760Z,31.94
2018-09-13T12:30:38.360Z,32.22
2018-09-13T12:33:06.967Z,31.88
2018-09-13T12:35:53.152Z,30.98
2018-09-13T12:38:21.699Z,31.47
2018-09-13T12:40:50.259Z,31.33
2018-09-13T12:43:18.850Z,30.74
2018-09-13T12:45:47.399Z,30.75
2018-09-13T12:48:16.133Z,32.37
2018-09-13T12:50:45.518Z,30.90
2018-09-13T12:53:14.124Z,30.73
2018-09-13T12:55:48.040Z,30.14
2018-09-13T12:58:16.580Z,29.70
2018-09-13T13:00:45.295Z,29.61
2018-09-13T13:03:14.096Z,29.60
2018-09-13T13:05:42.756Z,29.84
2018-09-13T13:08:11.330Z,28.80
2018-09-13T13:10:39.924Z,29.41
2018-09-13T13:13:08.503Z,30.34
2018-09-13T13:15:37.177Z,29.91
2018-09-13T13:18:05.861Z,30.25
2018-09-13T13:20:34.578Z,30.30
2018-09-13T13:23:03.196Z,30.01
2018-09-13T13:25:31.771Z,30.12
2018-09-13T13:28:01.112Z,30.24
2018-09-13T13:30:29.872Z,29.24
2018-09-13T13:32:58.410Z,29.79
2018-09-13T13:35:27.034Z,30.97
2018-09-13T13:37:55.607Z,30.56
2018-09-13T13:40:24.206Z,31.12
2018-09-13T13:42:52.796Z,30.76
2018-09-13T13:45:21.421Z,32.01
2018-09-13T13:47:50.008Z,31.76
2018-09-13T13:50:18.576Z,32.91
2018-09-13T13:52:47.250Z,33.55
2018-09-13T13:55:15.948Z,32.56
2018-09-13T13:57:44.611Z,33.37
2018-09-13T14:00:13.197Z,33.29
2018-09-13T14:02:44.725Z,33.53
2018-09-13T14:05:14.057Z,34.70
2018-09-13T14:07:42.791Z,34.56
2018-09-13T14:10:11.307Z,34.68
2018-09-13T14:12:39.958Z,33.50
2018-09-13T14:15:08.695Z,33.75
2018-09-13T14:17:37.367Z,32.46
2018-09-13T14:20:06.118Z,33.91
2018-09-13T14:22:34.728Z,34.04
2018-09-13T14:25:03.457Z,33.98
2018-09-13T14:27:32.192Z,34.76
2018-09-13T14:30:01.125Z,33.54
2018-09-13T14:32:29.684Z,32.72
2018-09-13T14:34:58.264Z,33.83
2018-09-13T14:37:27.341Z,35.04
2018-09-13T14:39:55.996Z,35.18
2018-09-13T14:42:24.606Z,35.40
2018-09-13T14:44:53.172Z,35.44
2018-09-13T14:47:21.789Z,35.96
2018-09-13T14:49:50.564Z,35.28
2018-09-13T14:52:19.127Z,34.36
2018-09-13T14:54:47.724Z,32.89
2018-09-13T14:57:16.407Z,32.86
2018-09-13T14:59:45.013Z,32.13
2018-09-13T15:02:13.977Z,32.97
2018-09-13T15:04:42.923Z,33.23
2018-09-13T15:07:11.698Z,33.31
2018-09-13T15:09:40.446Z,33.36
2018-09-13T15:12:08.981Z,32.57
2018-09-13T15:14:37.519Z,33.70
2018-09-13T15:17:05.708Z,33.91
2018-09-13T15:19:34.567Z,33.68
2018-09-13T15:22:03.208Z,34.17
2018-09-13T15:24:31.851Z,34.31
2018-09-13T15:27:00.368Z,34.59
2018-09-13T15:29:29.090Z,34.33
2018-09-13T15:31:57.711Z,34.54
2018-09-13T15:34:26.362Z,34.27
2018-09-13T15:36:54.930Z,35.49
2018-09-13T15:39:23.544Z,35.54
2018-09-13T15:41:52.256Z,37.03
2018-09-13T15:44:20.857Z,36.68
2018-09-13T15:46:49.504Z,36.75
2018-09-13T15:49:18.161Z,37.47
2018-09-13T15:51:46.769Z,38.14
2018-09-13T15:54:15.405Z,39.15
2018-09-13T15:56:44.862Z,39.30
2018-09-13T15:59:13.496Z,39.77
2018-09-13T16:01:42.170Z,40.64
2018-09-13T16:04:10.720Z,40.71
2018-09-13T16:06:39.277Z,41.94
2018-09-13T16:09:09.040Z,42.25
2018-09-13T16:11:38.079Z,42.70
2018-09-13T16:14:06.772Z,43.39
2018-09-13T16:16:35.756Z,40.66
2018-09-13T16:22:06.680Z,34.50
2018-09-13T16:24:35.271Z,33.88
2018-09-13T16:27:03.892Z,36.42
2018-09-13T16:29:32.477Z,40.51
2018-09-13T16:32:01.976Z,43.37
2018-09-13T16:34:30.552Z,44.30
2018-09-13T16:37:06.768Z,45.49
2018-09-13T16:39:40.557Z,47.56
2018-09-13T16:42:14.359Z,48.70
2018-09-13T16:44:56.254Z,50.25
2018-09-13T16:47:31.722Z,51.27
2018-09-13T16:50:01.698Z,52.13
2018-09-13T16:52:31.163Z,52.83
2018-09-13T16:54:59.804Z,53.90
2018-09-13T16:57:28.390Z,54.94
2018-09-13T16:59:57.735Z,54.75
2018-09-13T17:02:26.299Z,54.68
2018-09-13T17:04:54.926Z,55.05
2018-09-13T17:07:23.540Z,54.69
2018-09-13T17:09:52.785Z,54.66
2018-09-13T17:12:21.348Z,54.36
2018-09-13T17:14:50.072Z,54.36
2018-09-13T17:17:19.025Z,54.35
2018-09-13T17:19:47.597Z,53.75
2018-09-13T17:22:16.149Z,53.54
2018-09-13T17:24:44.738Z,53.43
2018-09-13T17:27:13.555Z,53.77
2018-09-13T17:29:42.252Z,54.25
2018-09-13T17:32:11.055Z,54.69
2018-09-13T17:34:39.633Z,53.40
2018-09-13T17:37:08.236Z,54.23
2018-09-13T17:39:36.777Z,54.57
2018-09-13T17:42:05.604Z,54.43
2018-09-13T17:44:34.196Z,54.33
2018-09-13T17:47:02.886Z,54.58
2018-09-13T17:49:31.612Z,54.00
2018-09-13T17:52:00.273Z,53.92
2018-09-13T17:54:28.821Z,54.31
2018-09-13T17:56:57.374Z,54.67
2018-09-13T17:59:25.971Z,54.03
2018-09-13T18:01:54.599Z,54.03
2018-09-13T18:04:23.163Z,53.71
2018-09-13T18:06:51.772Z,53.89
2018-09-13T18:09:20.323Z,54.28
2018-09-13T18:11:48.906Z,53.99
2018-09-13T18:14:17.496Z,53.59
2018-09-13T18:16:46.061Z,54.06
2018-09-13T18:19:14.615Z,55.01
2018-09-13T18:21:43.206Z,55.16
2018-09-13T18:24:11.769Z,54.92
2018-09-13T18:26:40.344Z,56.36
2018-09-13T18:29:12.531Z,56.51
2018-09-13T18:31:41.246Z,56.62
2018-09-13T18:34:09.801Z,56.21
2018-09-13T18:36:38.780Z,55.53
2018-09-13T18:39:08.867Z,56.13
2018-09-13T18:41:37.440Z,55.63
2018-09-13T18:44:06.068Z,56.03
2018-09-13T18:46:38.063Z,55.67
2018-09-13T18:49:07.088Z,56.43
2018-09-13T18:51:35.656Z,55.44
2018-09-13T18:54:04.333Z,56.10
2018-09-13T18:56:32.939Z,56.01
2018-09-13T19:07:55.522Z,56.20
2018-09-13T19:10:24.116Z,56.55
2018-09-13T19:12:52.671Z,56.79
2018-09-13T19:15:21.503Z,55.92
2018-09-13T19:17:50.043Z,56.21
2018-09-13T19:20:18.577Z,56.24
2018-09-13T19:22:47.087Z,55.93
2018-09-13T19:25:15.647Z,56.17
2018-09-13T19:27:44.195Z,56.05
2018-09-13T19:30:12.736Z,56.21
2018-09-13T19:32:41.406Z,56.36
2018-09-13T19:35:10.039Z,56.81
2018-09-13T19:37:38.600Z,56.31
2018-09-13T19:40:07.602Z,57.37
2018-09-13T19:42:37.029Z,57.68
2018-09-13T19:45:05.985Z,57.66
2018-09-13T19:47:34.815Z,57.67
2018-09-13T19:50:03.469Z,57.39
2018-09-13T19:52:32.056Z,56.82
2018-09-13T19:55:00.631Z,56.94
2018-09-13T19:57:29.329Z,57.05
2018-09-13T19:59:57.908Z,57.00
2018-09-13T20:02:27.255Z,56.83
2018-09-13T20:04:55.867Z,56.74
2018-09-13T20:07:24.408Z,57.53
2018-09-13T20:09:52.965Z,57.61
2018-09-13T20:12:21.517Z,57.35
2018-09-13T20:14:50.061Z,57.40
2018-09-13T20:17:18.651Z,57.79
2018-09-13T20:19:47.247Z,57.93
2018-09-13T20:22:15.829Z,57.64
2018-09-13T20:24:44.467Z,58.14
2018-09-13T20:27:13.673Z,57.72
2018-09-13T20:29:42.283Z,57.63
2018-09-13T20:32:10.888Z,57.95
2018-09-13T20:34:54.811Z,56.87
2018-09-13T20:37:25.093Z,57.19
2018-09-13T20:39:53.792Z,57.43
2018-09-13T20:42:27.925Z,57.22
2018-09-13T20:50:26.358Z,57.12
2018-09-13T20:53:06.157Z,58.03
2018-09-13T20:58:32.608Z,58.39
2018-09-13T21:01:01.241Z,57.90
2018-09-13T21:03:29.812Z,58.03
2018-09-13T21:05:58.339Z,57.92
2018-09-13T21:08:26.977Z,58.14
2018-09-13T21:10:55.534Z,58.42
2018-09-13T21:13:24.076Z,58.78
2018-09-13T21:15:52.720Z,58.84
2018-09-13T21:18:21.254Z,58.98
2018-09-13T21:20:49.795Z,59.39
2018-09-13T21:23:18.344Z,59.18
2018-09-13T21:25:46.894Z,58.41
2018-09-13T21:28:15.452Z,59.40
2018-09-13T21:30:43.984Z,59.79
2018-09-13T21:33:12.711Z,59.78
2018-09-13T21:35:41.362Z,60.67
2018-09-13T21:38:10.685Z,60.64
2018-09-13T21:40:39.242Z,60.71
2018-09-13T21:43:07.798Z,60.20
2018-09-13T21:45:36.367Z,59.85
2018-09-13T21:48:05.076Z,60.07
2018-09-13T21:50:33.679Z,61.03
2018-09-13T21:53:02.223Z,61.13
2018-09-13T21:55:30.843Z,61.66
2018-09-13T21:57:59.396Z,61.41
2018-09-13T22:00:28.001Z,61.74
2018-09-13T22:02:57.731Z,61.76
2018-09-13T22:05:26.261Z,61.40
2018-09-13T22:07:54.860Z,61.32
2018-09-13T22:10:23.397Z,61.04
2018-09-13T22:12:52.016Z,60.74
2018-09-13T22:15:20.642Z,61.62
2018-09-13T22:17:49.231Z,61.75
2018-09-13T22:20:18.049Z,63.32
2018-09-13T22:22:46.655Z,63.14
2018-09-13T22:25:15.233Z,63.64
2018-09-13T22:27:43.821Z,63.82
2018-09-13T22:30:12.415Z,64.06
2018-09-13T22:32:40.977Z,64.79
2018-09-13T22:38:00.255Z,64.39
2018-09-13T22:40:28.770Z,63.78
2018-09-13T22:42:57.296Z,63.34
2018-09-13T22:45:26.048Z,64.25
2018-09-13T22:47:54.645Z,64.97
2018-09-13T22:50:23.185Z,64.55
2018-09-13T22:52:51.859Z,64.93
2018-09-13T22:55:20.404Z,64.97
2018-09-13T22:57:49.072Z,65.26
2018-09-13T23:00:17.649Z,65.45
2018-09-13T23:02:48.693Z,65.58
2018-09-13T23:05:18.210Z,65.72
2018-09-13T23:07:47.011Z,65.66
2018-09-13T23:10:15.953Z,65.09
2018-09-13T23:12:44.523Z,65.34
2018-09-13T23:15:13.225Z,64.72
2018-09-13T23:17:42.019Z,65.00
2018-09-13T23:20:10.776Z,64.97
2018-09-13T23:22:39.307Z,64.88
2018-09-13T23:25:07.838Z,65.01
2018-09-13T23:27:36.376Z,65.16
2018-09-13T23:30:05.170Z,65.82
2018-09-13T23:32:33.721Z,65.34
2018-09-13T23:35:02.302Z,65.15
2018-09-13T23:37:30.916Z,65.44
2018-09-13T23:39:59.718Z,64.97
2018-09-13T23:42:28.049Z,65.62
2018-09-13T23:44:56.579Z,66.19
2018-09-13T23:47:25.210Z,65.98
2018-09-13T23:49:53.759Z,66.10
2018-09-13T23:52:22.311Z,66.82
2018-09-13T23:54:50.850Z,66.54
2018-09-13T23:57:19.411Z,67.10
2018-09-13T23:59:48.763Z,67.51
